KMRN/MRN METAR and TAF weather

Enter ICAO airport designator
Station Type Date Time Source
KMRN METAR 2019/12/08 11:15 UTC NOAA

KMRN 081115Z AUTO 00000KT 10SM OVC030 06/M03 A3046 RMK AO2 T00551026


Station Type Date Time Source
KMRN Decoded METAR 2019/12/08 11:15 UTC NOAA

Morganton, Morganton-Lenoir Airport, NC, United States (KMRN) 35-49-17N 081-36-39W
Dec 08, 2019 - 06:15 AM EST / 2019.12.08 1115 UTC
Wind: Calm:0
Visibility: 10 mile(s):0
Sky conditions: overcast
Temperature: 41.9 F (5.5 C)
Dew Point: 27.3 F (-2.6 C)
Relative Humidity: 55%
Pressure (altimeter): 30.46 in. Hg (1031 hPa)
ob: KMRN 081115Z AUTO 00000KT 10SM OVC030 06/M03 A3046 RMK AO2 T00551026
cycle: 11

Station Type Date Time Source
KMRN TAF UTC NOAA

Error!

Example: see airport list